Time;durP1;ratioP1;P1;durP2;ratioP2;P2;SDS_P1;SDS_P2;PMS_P1;PMS_P2;Temp;Humidity;BMP_temperature;BMP_pressure;BME280_temperature;BME280_humidity;BME280_pressure;Samples;Min_cycle;Max_cycle;Signal;HPM_P1;HPM_P2
2023/07/12 00:01:19;;;;;;;19.47;12.40;;;;;;;18.58;89.44;100495.77;126524;1086;101998;-74
2023/07/12 00:03:48;;;;;;;20.57;13.27;;;;;;;18.52;89.25;100497.52;126557;1086;104279;-74
2023/07/12 00:06:19;;;;;;;22.73;12.63;;;;;;;18.46;89.64;100504.57;126430;1085;104225;-73
2023/07/12 00:08:48;;;;;;;20.07;12.30;;;;;;;18.42;90.77;100508.12;126501;1086;104152;-73
2023/07/12 00:11:19;;;;;;;23.50;12.70;;;;;;;18.39;91.07;100504.58;126420;1086;104241;-73
2023/07/12 00:13:48;;;;;;;20.90;12.50;;;;;;;18.34;90.02;100501.91;126540;1086;104158;-74
2023/07/12 00:16:24;;;;;;;20.47;12.27;;;;;;;18.31;91.17;100507.20;126447;1086;104251;-73
2023/07/12 00:18:53;;;;;;;20.80;11.37;;;;;;;18.25;90.20;100500.08;126150;1086;102147;-73
2023/07/12 00:21:24;;;;;;;18.13;10.80;;;;;;;18.25;90.63;100492.11;126417;1086;101850;-73
2023/07/12 00:23:53;;;;;;;19.77;11.23;;;;;;;18.26;90.77;100485.94;126375;1086;108200;-73
2023/07/12 00:26:25;;;;;;;16.93;10.07;;;;;;;18.29;90.66;100499.23;126409;1086;101972;-73
2023/07/12 00:28:56;;;;;;;20.50;12.03;;;;;;;18.32;90.70;100499.23;126466;1086;104152;-73
2023/07/12 00:31:25;;;;;;;21.73;10.93;;;;;;;18.31;90.66;100494.80;126530;1086;102270;-73
2023/07/12 00:33:54;;;;;;;18.13;10.77;;;;;;;18.31;91.16;100491.27;126463;1086;104277;-73
2023/07/12 00:36:24;;;;;;;17.25;10.20;;;;;;;18.26;90.37;100501.87;126468;1086;104215;-73
2023/07/12 00:38:54;;;;;;;20.63;10.67;;;;;;;18.20;90.73;100496.53;126481;1086;104200;-73
2023/07/12 00:41:42;;;;;;;16.53;9.93;;;;;;;18.14;91.17;100499.16;126503;1086;101854;-74
2023/07/12 00:44:17;;;;;;;19.50;10.60;;;;;;;18.10;90.82;100500.02;126078;1086;104185;-73
2023/07/12 00:46:50;;;;;;;18.90;10.28;;;;;;;18.05;91.19;100504.42;126484;1086;104213;-74
2023/07/12 00:49:27;;;;;;;18.33;10.07;;;;;;;17.99;90.98;100501.73;126437;1086;102005;-73
2023/07/12 00:52:01;;;;;;;19.10;10.23;;;;;;;17.92;91.58;100496.39;126141;1086;104144;-73
2023/07/12 00:54:48;;;;;;;21.13;10.70;;;;;;;17.88;91.42;100489.28;126448;1086;109932;-73
2023/07/12 00:57:17;;;;;;;19.10;10.87;;;;;;;17.86;91.49;100487.48;126498;1086;104228;-73
2023/07/12 00:59:47;;;;;;;18.83;9.93;;;;;;;17.85;91.49;100488.34;126111;1086;104212;-73
2023/07/12 01:02:16;;;;;;;17.60;10.37;;;;;;;17.83;91.74;100483.03;126034;1086;101807;-73
2023/07/12 01:04:47;;;;;;;18.60;10.47;;;;;;;17.82;91.63;100481.24;126460;1085;104197;-73
2023/07/12 01:07:18;;;;;;;18.30;10.07;;;;;;;17.81;91.75;100475.92;126508;1086;101910;-73
2023/07/12 01:09:47;;;;;;;20.33;10.73;;;;;;;17.81;91.68;100478.58;126508;1086;104229;-73
2023/07/12 01:12:15;;;;;;;22.47;10.87;;;;;;;17.79;92.05;100478.57;126547;1085;104203;-73
2023/07/12 01:14:45;;;;;;;18.63;10.57;;;;;;;17.77;92.19;100467.07;126451;1086;104257;-73
2023/07/12 01:17:14;;;;;;;19.73;11.43;;;;;;;17.76;92.48;100471.50;126533;1086;104238;-73
2023/07/12 01:19:42;;;;;;;21.43;11.17;;;;;;;17.73;92.23;100471.48;126474;1086;104254;-73
2023/07/12 01:22:11;;;;;;;22.30;11.20;;;;;;;17.71;91.91;100474.99;126065;1086;104149;-73
2023/07/12 01:24:39;;;;;;;20.83;11.50;;;;;;;17.69;92.43;100467.02;126454;1086;102300;-73
2023/07/12 01:27:14;;;;;;;20.43;11.50;;;;;;;17.66;92.37;100469.66;126414;1086;102021;-73
2023/07/12 01:29:43;;;;;;;20.47;11.07;;;;;;;17.64;92.29;100473.16;126411;1086;104200;-73
2023/07/12 01:32:13;;;;;;;20.73;11.30;;;;;;;17.64;92.50;100479.38;126478;1086;104152;-73
2023/07/12 01:34:43;;;;;;;22.03;10.97;;;;;;;17.61;92.68;100482.89;126443;1086;102683;-73
2023/07/12 01:37:12;;;;;;;19.90;10.80;;;;;;;17.58;92.52;100479.34;126481;1086;104158;-73
2023/07/12 01:39:41;;;;;;;19.10;11.07;;;;;;;17.55;92.88;100474.89;126047;1086;104143;-73
2023/07/12 01:42:10;;;;;;;18.70;10.70;;;;;;;17.53;92.88;100479.31;126460;1086;104146;-73
2023/07/12 01:44:38;;;;;;;20.67;11.30;;;;;;;17.53;92.77;100489.02;126405;1086;101883;-73
2023/07/12 01:47:07;;;;;;;21.83;12.17;;;;;;;17.52;92.77;100487.26;126525;1086;104159;-73
2023/07/12 01:49:35;;;;;;;22.63;12.80;;;;;;;17.50;93.40;100488.98;126485;1086;101820;-74
2023/07/12 01:52:04;;;;;;;112.47;14.73;;;;;;;17.49;93.31;100490.77;126409;1086;104324;-74
2023/07/12 01:54:33;;;;;;;23.63;14.20;;;;;;;17.48;92.90;100490.75;126130;1086;104178;-74
2023/07/12 01:57:02;;;;;;;21.33;12.23;;;;;;;17.47;93.67;100497.84;126458;1086;104258;-74
2023/07/12 01:59:30;;;;;;;23.93;13.40;;;;;;;17.50;93.32;100495.20;126529;1086;104210;-73
2023/07/12 02:02:00;;;;;;;20.07;12.47;;;;;;;17.53;93.85;100489.02;126479;1086;101833;-74
2023/07/12 02:04:28;;;;;;;26.00;12.17;;;;;;;17.54;93.81;100481.06;126462;1086;104152;-74
2023/07/12 02:06:56;;;;;;;21.10;12.90;;;;;;;17.52;93.72;100480.17;126488;1086;104280;-74
2023/07/12 02:09:34;;;;;;;20.93;12.03;;;;;;;17.51;94.27;100488.13;126426;1086;104207;-74
2023/07/12 02:12:05;;;;;;;20.00;11.33;;;;;;;17.49;94.07;100482.81;126456;1086;104201;-74
2023/07/12 02:14:38;;;;;;;25.43;12.67;;;;;;;17.45;94.16;100478.34;126104;1086;104269;-74
2023/07/12 02:17:06;;;;;;;22.77;11.63;;;;;;;17.42;94.18;100480.97;126462;1086;102374;-74
2023/07/12 02:19:35;;;;;;;20.20;12.10;;;;;;;17.38;94.37;100485.38;126471;1086;101809;-74
2023/07/12 02:22:04;;;;;;;21.23;11.93;;;;;;;17.34;94.42;100487.99;126935;1085;104086;-74
2023/07/12 02:24:32;;;;;;;24.07;12.47;;;;;;;17.31;94.64;100480.02;126479;1084;101963;-73
2023/07/12 02:27:01;;;;;;;22.80;12.07;;;;;;;17.29;94.79;100492.38;126491;1086;104223;-74
2023/07/12 02:29:29;;;;;;;19.07;11.30;;;;;;;17.23;94.42;100487.91;126479;1086;104434;-74
2023/07/12 02:31:57;;;;;;;23.53;11.53;;;;;;;17.20;94.75;100491.44;126588;1086;101932;-74
2023/07/12 02:34:26;;;;;;;24.87;11.67;;;;;;;17.18;95.31;100492.30;126603;1086;104416;-75
2023/07/12 02:36:55;;;;;;;21.73;10.93;;;;;;;17.16;95.27;100494.94;126548;1086;104225;-75
2023/07/12 02:39:23;;;;;;;19.83;11.00;;;;;;;17.14;95.17;100506.39;126484;1086;101884;-75
2023/07/12 02:41:51;;;;;;;21.40;11.10;;;;;;;17.15;94.95;100500.22;126493;1086;104263;-75
2023/07/12 02:44:20;;;;;;;19.93;11.10;;;;;;;17.16;95.31;100507.31;126470;1086;104199;-74
2023/07/12 02:46:49;;;;;;;19.60;10.67;;;;;;;17.15;95.16;100514.36;126469;1086;104241;-74
2023/07/12 02:49:17;;;;;;;19.30;11.33;;;;;;;17.14;95.05;100527.59;126440;1086;104171;-74
2023/07/12 02:51:46;;;;;;;25.03;12.30;;;;;;;17.12;95.18;100530.23;126447;1086;102248;-74
2023/07/12 02:54:14;;;;;;;51.73;13.03;;;;;;;17.09;95.98;100535.50;126439;1086;104187;-75
2023/07/12 02:56:43;;;;;;;32.47;12.47;;;;;;;17.04;96.30;100539.88;126516;1086;102076;-75
2023/07/12 02:59:11;;;;;;;29.75;12.15;;;;;;;17.00;95.77;100543.37;126511;1086;104203;-74
2023/07/12 03:01:40;;;;;;;22.60;12.23;;;;;;;17.00;96.14;100548.67;126152;1086;104201;-74
2023/07/12 03:04:09;;;;;;;23.00;13.07;;;;;;;16.99;96.11;100555.74;126496;1086;104334;-75
2023/07/12 03:06:37;;;;;;;20.40;12.33;;;;;;;16.98;96.27;100561.91;126490;1086;102269;-75
2023/07/12 03:09:06;;;;;;;24.07;12.50;;;;;;;17.00;96.50;100570.78;126458;1086;104616;-74
2023/07/12 03:11:35;;;;;;;19.70;11.87;;;;;;;17.01;96.58;100566.36;126519;1086;101874;-74
2023/07/12 03:14:03;;;;;;;20.20;12.00;;;;;;;16.99;96.29;100561.05;126547;1086;101826;-74
2023/07/12 03:16:32;;;;;;;22.13;11.27;;;;;;;17.00;96.19;100569.88;126531;1086;104234;-74
2023/07/12 03:19:01;;;;;;;26.77;11.40;;;;;;;16.98;95.96;100569.86;126555;1086;104364;-75
2023/07/12 03:21:29;;;;;;;36.60;13.30;;;;;;;16.97;96.06;100575.14;126591;1086;104171;-75
2023/07/12 03:23:58;;;;;;;21.33;11.57;;;;;;;16.99;96.66;100573.42;126559;1086;103929;-75
2023/07/12 03:26:26;;;;;;;19.17;11.33;;;;;;;17.06;96.59;100577.89;126521;1086;101907;-74
2023/07/12 03:28:56;;;;;;;25.20;12.30;;;;;;;17.11;96.65;100584.16;126567;1086;104170;-74
2023/07/12 03:31:25;;;;;;;34.90;11.70;;;;;;;17.13;96.83;100579.74;126620;1086;104248;-75
2023/07/12 03:33:53;;;;;;;21.53;11.27;;;;;;;17.13;96.23;100584.17;126560;1086;104173;-74
2023/07/12 03:36:24;;;;;;;20.03;10.00;;;;;;;17.16;96.69;100600.98;126459;1086;104201;-75
2023/07/12 03:38:53;;;;;;;17.80;10.27;;;;;;;17.17;97.09;100607.17;126504;1086;102070;-74
2023/07/12 03:41:22;;;;;;;18.93;9.70;;;;;;;17.19;96.38;100614.28;126481;1086;104264;-74
2023/07/12 03:43:51;;;;;;;20.27;11.40;;;;;;;17.20;96.49;100618.72;126051;1086;104158;-74
2023/07/12 03:46:20;;;;;;;19.90;10.97;;;;;;;17.21;97.33;100620.47;126107;1086;104308;-76
2023/07/12 03:48:48;;;;;;;18.17;10.53;;;;;;;17.20;96.62;100625.77;126323;1086;104254;-75
2023/07/12 03:51:18;;;;;;;18.90;10.00;;;;;;;17.21;96.84;100619.59;126285;1086;101893;-75
2023/07/12 03:53:46;;;;;;;17.40;9.23;;;;;;;17.22;96.52;100627.57;126630;1086;102087;-76
2023/07/12 03:56:15;;;;;;;19.33;9.47;;;;;;;17.21;97.09;100623.13;126413;1086;102003;-75
2023/07/12 03:58:43;;;;;;;17.37;9.53;;;;;;;17.22;96.66;100619.61;126529;1086;102610;-75
2023/07/12 04:01:15;;;;;;;16.20;8.77;;;;;;;17.26;97.10;100623.17;126019;1089;104155;-75
2023/07/12 04:03:43;;;;;;;16.13;9.17;;;;;;;17.29;96.81;100632.94;126369;1086;104200;-75
2023/07/12 04:06:12;;;;;;;16.93;8.83;;;;;;;17.30;96.92;100634.73;126433;1086;104245;-75
2023/07/12 04:08:41;;;;;;;15.77;8.87;;;;;;;17.29;96.80;100636.47;126195;1086;104158;-76
2023/07/12 04:11:24;;;;;;;16.80;9.33;;;;;;;17.33;96.81;100640.06;126460;1086;104203;-74
2023/07/12 04:13:52;;;;;;;13.80;8.70;;;;;;;17.34;96.80;100636.52;126529;1086;102254;-75
2023/07/12 04:16:22;;;;;;;16.53;8.07;;;;;;;17.33;97.08;100638.29;126607;1086;104178;-76
2023/07/12 04:18:50;;;;;;;16.50;8.33;;;;;;;17.34;96.45;100625.91;126731;1086;104149;-76
2023/07/12 04:21:19;;;;;;;13.43;7.87;;;;;;;17.38;97.00;100631.26;126645;1086;104149;-76
2023/07/12 04:23:48;;;;;;;13.70;7.20;;;;;;;17.40;97.01;100636.58;126660;1086;102604;-75
2023/07/12 04:26:17;;;;;;;12.70;7.03;;;;;;;17.41;96.59;100630.41;126397;1086;102856;-75
2023/07/12 04:28:49;;;;;;;13.45;7.50;;;;;;;17.47;96.79;100630.47;126556;1086;102012;-75
2023/07/12 04:31:19;;;;;;;15.30;7.80;;;;;;;17.55;96.65;100628.77;126374;1086;104302;-74
2023/07/12 04:33:48;;;;;;;15.77;7.67;;;;;;;17.60;96.92;100639.42;126313;1086;104239;-73
2023/07/12 04:36:18;;;;;;;13.47;7.13;;;;;;;17.61;96.75;100636.78;126051;1086;104152;-75
2023/07/12 04:38:47;;;;;;;13.13;7.33;;;;;;;17.63;97.24;100638.58;126635;1086;101890;-77
2023/07/12 04:41:15;;;;;;;13.47;7.33;;;;;;;17.65;96.77;100644.77;126740;1086;104184;-76
2023/07/12 04:43:44;;;;;;;15.07;7.73;;;;;;;17.68;96.69;100639.50;126731;1086;104210;-77
2023/07/12 04:46:12;;;;;;;16.30;8.03;;;;;;;17.70;96.96;100640.39;126699;1086;102378;-77
2023/07/12 04:48:41;;;;;;;15.30;7.63;;;;;;;17.73;96.74;100643.06;126710;1086;104113;-77
2023/07/12 04:51:09;;;;;;;14.40;7.67;;;;;;;17.75;96.85;100643.99;126927;1086;104149;-78
2023/07/12 04:53:42;;;;;;;15.33;7.43;;;;;;;17.78;96.76;100639.59;126873;1086;101888;-78
2023/07/12 04:56:10;;;;;;;15.13;7.57;;;;;;;17.82;96.87;100645.80;127012;1086;104258;-78
2023/07/12 04:58:39;;;;;;;14.13;7.53;;;;;;;17.87;96.71;100644.09;126883;1086;104214;-78
2023/07/12 05:01:07;;;;;;;15.13;7.83;;;;;;;17.91;96.92;100651.22;127004;1086;102168;-78
2023/07/12 05:03:36;;;;;;;14.70;7.80;;;;;;;18.00;96.74;100650.41;127121;1086;104193;-77
2023/07/12 05:06:05;;;;;;;14.63;7.00;;;;;;;18.03;96.44;100647.78;127052;1086;104162;-77
2023/07/12 05:08:33;;;;;;;18.40;7.40;;;;;;;18.07;96.43;100649.56;126757;1086;101978;-76
2023/07/12 05:11:03;;;;;;;14.27;6.53;;;;;;;18.09;96.10;100647.83;126940;1086;101777;-79
2023/07/12 05:13:33;;;;;;;12.07;6.40;;;;;;;18.15;96.45;100649.62;127097;1086;102850;-76
2023/07/12 05:16:02;;;;;;;12.33;6.00;;;;;;;18.20;96.11;100655.88;126941;1086;102190;-77
2023/07/12 05:18:30;;;;;;;12.03;5.63;;;;;;;18.28;95.86;100648.84;126831;1086;104133;-77
2023/07/12 05:20:59;;;;;;;11.43;5.30;;;;;;;18.36;95.66;100648.01;127050;1086;102060;-77
2023/07/12 05:23:27;;;;;;;10.50;5.57;;;;;;;18.44;95.53;100644.50;127383;1086;102633;-79
2023/07/12 05:26:03;;;;;;;7.83;4.80;;;;;;;18.53;95.69;100641.02;127151;1086;104258;-79
2023/07/12 05:28:50;;;;;;;11.23;4.87;;;;;;;18.61;95.44;100649.03;127470;1086;102133;-85
2023/07/12 05:31:33;;;;;;;8.40;4.70;;;;;;;18.71;94.13;100649.95;126969;1086;104159;-77
2023/07/12 05:34:02;;;;;;;9.13;4.53;;;;;;;18.75;94.48;100651.76;127785;1086;101805;-76
2023/07/12 05:36:31;;;;;;;8.53;4.50;;;;;;;18.80;94.19;100652.66;127118;1086;101982;-76
2023/07/12 05:39:01;;;;;;;8.73;4.47;;;;;;;18.83;93.93;100644.70;126530;1086;104134;-76
2023/07/12 05:41:35;;;;;;;7.50;4.80;;;;;;;18.88;93.36;100644.75;127722;1086;102275;-77
2023/07/12 05:44:05;;;;;;;7.70;4.43;;;;;;;18.95;92.65;100643.91;126652;1086;104194;-75
2023/07/12 05:46:49;;;;;;;10.70;4.40;;;;;;;19.01;93.39;100639.48;127253;1087;104239;-80
2023/07/12 05:49:18;;;;;;;12.40;5.17;;;;;;;19.08;92.35;100648.36;127356;1086;102928;-77
2023/07/12 05:51:55;;;;;;;7.43;4.10;;;;;;;19.16;92.69;100646.59;127027;1086;104279;-81
2023/07/12 05:54:31;;;;;;;7.57;4.40;;;;;;;19.19;91.87;100643.07;127515;1086;102112;-81
2023/07/12 05:56:59;;;;;;;7.47;4.60;;;;;;;19.24;91.21;100645.74;127492;1086;102300;-78
2023/07/12 05:59:28;;;;;;;9.77;4.67;;;;;;;19.29;91.28;100641.31;127555;1086;104204;-77
2023/07/12 06:02:08;;;;;;;7.57;4.33;;;;;;;19.34;91.60;100643.11;127468;1086;102609;-79
2023/07/12 06:04:43;;;;;;;9.20;4.50;;;;;;;19.39;90.28;100651.98;127525;1086;102868;-79
2023/07/12 06:07:13;;;;;;;7.87;4.40;;;;;;;19.44;89.99;100644.00;127576;1086;102155;-81
2023/07/12 06:09:43;;;;;;;6.73;3.90;;;;;;;19.49;89.34;100647.55;127982;1086;102330;-76
2023/07/12 06:12:12;;;;;;;7.67;4.23;;;;;;;19.53;88.96;100656.45;127325;1085;104081;-79
2023/07/12 06:14:40;;;;;;;8.37;4.50;;;;;;;19.58;88.83;100652.88;127078;1086;102393;-82
2023/07/12 06:17:09;;;;;;;10.03;4.50;;;;;;;19.62;88.50;100632.50;127298;1086;101954;-78
2023/07/12 06:19:38;;;;;;;6.90;4.13;;;;;;;19.67;88.25;100638.70;126645;1086;104207;-79
2023/07/12 06:22:07;;;;;;;7.60;4.13;;;;;;;19.73;89.02;100644.03;127770;1085;102022;-75
2023/07/12 06:24:35;;;;;;;10.43;4.60;;;;;;;19.81;88.67;100640.53;126373;1086;104286;-75
2023/07/12 06:27:07;;;;;;;9.85;5.35;;;;;;;19.90;87.97;100648.52;126439;1086;104444;-74
2023/07/12 06:29:36;;;;;;;7.27;4.50;;;;;;;19.93;87.26;100656.52;126413;1086;104047;-75
2023/07/12 06:32:06;;;;;;;8.90;4.90;;;;;;;19.94;87.25;100650.27;126288;1086;104225;-74
2023/07/12 06:34:35;;;;;;;8.00;4.53;;;;;;;19.98;87.57;100649.39;126664;1086;104149;-74
2023/07/12 06:37:04;;;;;;;8.57;4.57;;;;;;;20.00;86.61;100646.73;126419;1086;104266;-74
2023/07/12 06:39:36;;;;;;;8.93;5.17;;;;;;;20.02;86.73;100648.48;126329;1086;104324;-76
2023/07/12 06:42:07;;;;;;;10.57;4.97;;;;;;;20.02;86.07;100645.82;126604;1086;104207;-77
2023/07/12 06:44:39;;;;;;;11.70;5.20;;;;;;;20.09;86.64;100647.60;126605;1086;104187;-79
2023/07/12 06:49:48;;;;;;;8.90;4.43;;;;;;;20.26;85.71;100634.26;127190;1086;103488;-75
2023/07/12 06:52:18;;;;;;;9.63;5.27;;;;;;;20.38;85.43;100641.35;126894;1085;104318;-74
2023/07/12 06:54:49;;;;;;;13.87;4.87;;;;;;;20.44;85.21;100636.01;126254;1086;104311;-73
2023/07/12 06:57:23;;;;;;;9.57;4.63;;;;;;;20.54;85.43;100631.53;126343;1086;104146;-75
2023/07/12 06:59:56;;;;;;;10.10;5.07;;;;;;;20.65;84.91;100621.73;126418;1086;104219;-74
2023/07/12 07:02:31;;;;;;;8.17;5.00;;;;;;;20.76;84.60;100624.36;126397;1086;104305;-73
2023/07/12 07:05:06;;;;;;;7.83;4.50;;;;;;;20.89;83.55;100621.64;126395;1086;104232;-76
2023/07/12 07:07:38;;;;;;;9.37;4.83;;;;;;;20.99;83.82;100624.26;128824;1085;101613;-76
2023/07/12 07:10:15;;;;;;;9.30;4.90;;;;;;;21.13;82.67;100613.52;127665;1085;104152;-77
2023/07/12 07:12:53;;;;;;;8.50;4.10;;;;;;;21.31;82.46;100620.50;126929;1085;103728;-77
2023/07/12 07:15:26;;;;;;;7.63;4.20;;;;;;;21.46;82.88;100618.64;127595;1085;104043;-80
2023/07/12 07:17:57;;;;;;;7.50;3.87;;;;;;;21.64;81.53;100617.63;126666;1086;103588;-77
2023/07/12 07:20:29;;;;;;;8.87;4.20;;;;;;;21.76;81.45;100628.22;126616;1086;104239;-76
2023/07/12 07:23:02;;;;;;;9.17;4.13;;;;;;;21.92;80.36;100628.09;126338;1086;102008;-76
2023/07/12 07:25:34;;;;;;;7.10;4.37;;;;;;;22.04;79.70;100622.63;126358;1086;104226;-74
2023/07/12 07:28:09;;;;;;;7.93;4.23;;;;;;;22.19;78.73;100626.92;126570;1086;101954;-75
2023/07/12 07:30:39;;;;;;;6.87;4.13;;;;;;;22.34;78.31;100626.80;127278;1086;101768;-77
2023/07/12 07:33:13;;;;;;;7.17;4.30;;;;;;;22.54;77.91;100625.70;126731;1085;104069;-77
2023/07/12 07:35:54;;;;;;;6.27;3.83;;;;;;;22.68;74.40;100615.71;126760;1086;104181;-78
2023/07/12 07:38:28;;;;;;;9.07;3.77;;;;;;;22.82;75.80;100615.54;126671;1086;104296;-78
2023/07/12 07:41:10;;;;;;;7.50;3.90;;;;;;;23.02;75.84;100620.63;126618;1086;102390;-77
2023/07/12 07:43:41;;;;;;;6.57;3.97;;;;;;;23.29;74.34;100608.66;126348;1087;101885;-75
2023/07/12 07:46:16;;;;;;;12.10;4.10;;;;;;;23.43;73.00;100619.16;126440;1085;104184;-75
2023/07/12 07:48:47;;;;;;;9.07;3.70;;;;;;;23.62;72.76;100611.73;126927;1086;102279;-77
2023/07/12 07:51:18;;;;;;;6.90;3.90;;;;;;;23.80;72.42;100604.30;126489;1086;102455;-75
2023/07/12 07:53:56;;;;;;;6.23;3.70;;;;;;;23.98;72.08;100604.00;126390;1086;102105;-74
2023/07/12 07:56:29;;;;;;;6.23;3.50;;;;;;;24.14;72.41;100599.23;126274;1086;104242;-75
2023/07/12 07:59:00;;;;;;;5.10;3.27;;;;;;;24.26;71.60;100603.45;126386;1086;104238;-76
2023/07/12 08:01:32;;;;;;;6.50;3.50;;;;;;;24.35;70.63;100603.28;126348;1086;101886;-76
2023/07/12 08:04:05;;;;;;;7.73;3.70;;;;;;;24.45;69.52;100600.42;126542;1086;104153;-78
2023/07/12 08:06:39;;;;;;;8.70;3.80;;;;;;;24.45;69.62;100595.05;126422;1085;104216;-75
2023/07/12 08:09:12;;;;;;;7.90;4.00;;;;;;;24.57;68.95;100592.16;126301;1086;104210;-76
2023/07/12 08:11:47;;;;;;;5.67;3.63;;;;;;;24.73;66.60;100604.34;126349;1086;101970;-74
2023/07/12 08:14:20;;;;;;;9.23;4.00;;;;;;;24.86;66.06;100599.59;126371;1086;104218;-74
2023/07/12 08:16:53;;;;;;;6.57;3.50;;;;;;;25.01;66.27;100611.80;127084;1086;101842;-77
2023/07/12 08:19:32;;;;;;;5.22;3.10;;;;;;;25.22;66.36;100604.17;126343;1085;104328;-75
2023/07/12 08:22:01;;;;;;;6.40;3.30;;;;;;;25.37;65.09;100590.41;126342;1085;104252;-78
2023/07/12 08:24:30;;;;;;;4.53;3.10;;;;;;;25.46;64.57;100587.51;126630;1085;104228;-77
2023/07/12 08:26:59;;;;;;;5.77;3.57;;;;;;;25.65;64.65;100595.11;127092;1086;104188;-75
2023/07/12 08:29:29;;;;;;;6.67;3.13;;;;;;;25.77;63.98;100597.48;126491;1086;104212;-75
2023/07/12 08:31:58;;;;;;;5.27;2.87;;;;;;;25.90;62.53;100598.05;126369;1086;104183;-75
2023/07/12 08:34:30;;;;;;;6.20;2.97;;;;;;;25.98;62.62;100597.88;126373;1085;104348;-76
2023/07/12 08:36:58;;;;;;;2.93;2.63;;;;;;;26.14;62.38;100596.52;126613;1086;104209;-77
2023/07/12 08:39:30;;;;;;;7.70;3.13;;;;;;;26.22;61.93;100592.75;126358;1086;104251;-74
2023/07/12 08:41:59;;;;;;;4.75;3.40;;;;;;;26.35;60.91;100596.84;126606;1086;102337;-80
2023/07/12 08:44:45;;;;;;;3.87;3.03;;;;;;;26.46;60.89;100588.47;126712;1086;101977;-75
2023/07/12 08:47:22;;;;;;;8.60;3.00;;;;;;;26.62;59.58;100588.92;127456;1086;104154;-79
2023/07/12 08:49:52;;;;;;;5.23;3.00;;;;;;;26.81;59.50;100590.16;127849;1084;102278;-77
2023/07/12 08:52:38;;;;;;;4.07;2.90;;;;;;;26.99;60.08;100598.59;127433;1086;104341;-84
2023/07/12 08:55:14;;;;;;;3.47;2.90;;;;;;;26.97;57.14;100592.38;127778;1086;104149;-77
2023/07/12 08:58:22;;;;;;;3.80;2.70;;;;;;;26.94;54.76;100600.55;127339;1086;102287;-80
2023/07/12 09:00:59;;;;;;;3.70;3.00;;;;;;;26.89;54.91;100592.62;127223;1086;104175;-78
2023/07/12 09:03:28;;;;;;;7.47;2.90;;;;;;;26.93;55.55;100590.70;127028;1086;104200;-85
2023/07/12 09:06:00;;;;;;;4.70;2.73;;;;;;;26.97;54.97;100598.64;127460;1086;101864;-81
2023/07/12 09:08:36;;;;;;;4.43;2.60;;;;;;;27.06;54.38;100587.58;126897;1086;104167;-78
2023/07/12 09:11:15;;;;;;;4.40;3.10;;;;;;;27.16;53.76;100592.68;126803;1086;104207;-81
2023/07/12 09:13:47;;;;;;;4.57;3.00;;;;;;;27.21;53.56;100588.92;126505;1086;102324;-78
2023/07/12 09:16:28;;;;;;;4.50;2.77;;;;;;;27.29;53.29;100585.11;126571;1086;102040;-75
2023/07/12 09:21:41;;;;;;;5.50;3.00;;;;;;;27.38;50.78;100579.45;126571;1085;104181;-77
2023/07/12 09:24:19;;;;;;;6.37;3.07;;;;;;;27.33;51.26;100581.40;126415;1086;104216;-76
2023/07/12 09:26:49;;;;;;;4.40;2.60;;;;;;;27.31;51.48;100570.67;126510;1086;104228;-79
2023/07/12 09:29:21;;;;;;;3.63;2.87;;;;;;;27.40;51.25;100575.77;126592;1086;101971;-81
2023/07/12 09:31:54;;;;;;;7.37;3.10;;;;;;;27.48;50.93;100575.51;126730;1086;101980;-78
2023/07/12 09:34:26;;;;;;;4.28;2.65;;;;;;;27.36;49.72;100570.52;126815;1085;104198;-78
2023/07/12 09:36:59;;;;;;;4.10;2.80;;;;;;;27.31;48.96;100569.77;126300;1086;104251;-79
2023/07/12 09:39:28;;;;;;;8.88;3.08;;;;;;;27.25;48.94;100563.66;126417;1086;104244;-79
2023/07/12 09:42:04;;;;;;;4.80;2.67;;;;;;;27.21;47.27;100553.91;126724;1086;104161;-79
2023/07/12 09:44:34;;;;;;;4.47;2.70;;;;;;;27.17;47.91;100554.92;127500;1086;104181;-82
2023/07/12 09:47:08;;;;;;;5.30;2.83;;;;;;;27.16;46.54;100563.05;126958;1086;101848;-82
2023/07/12 09:49:44;;;;;;;3.57;2.50;;;;;;;27.08;47.02;100563.30;126621;1086;104251;-78
2023/07/12 09:52:22;;;;;;;5.30;2.67;;;;;;;27.14;46.91;100562.23;126503;1085;104337;-79
2023/07/12 09:54:57;;;;;;;2.73;2.53;;;;;;;27.19;46.85;100552.18;126738;1086;102292;-77
2023/07/12 09:57:45;;;;;;;4.00;2.60;;;;;;;27.19;45.81;100560.27;126967;1086;104248;-77
2023/07/12 10:00:23;;;;;;;5.10;2.80;;;;;;;27.19;45.37;100558.47;126901;1086;104324;-81
2023/07/12 10:03:13;;;;;;;4.00;2.70;;;;;;;27.14;45.36;100564.92;127999;1086;103602;-83
2023/07/12 10:05:52;;;;;;;4.47;2.73;;;;;;;27.07;45.15;100572.33;127491;1085;102059;-81
2023/07/12 10:08:24;;;;;;;3.87;2.90;;;;;;;26.93;44.16;100566.47;127317;1086;101714;-80
2023/07/12 10:11:03;;;;;;;4.77;2.90;;;;;;;26.80;44.73;100555.20;127717;1086;102046;-79
2023/07/12 10:13:59;;;;;;;;;;;;;;;;;;;;;
2023/07/12 10:16:35;;;;;;;5.63;2.80;;;;;;;26.75;43.35;100544.58;126702;1086;104265;-79
2023/07/12 10:19:21;;;;;;;5.43;2.90;;;;;;;26.73;43.04;100541.06;126819;1086;102009;-82
2023/07/12 10:21:54;;;;;;;4.70;2.73;;;;;;;26.75;43.25;100535.64;127375;1086;101784;-81
2023/07/12 10:24:34;;;;;;;6.27;3.10;;;;;;;26.77;42.30;100537.36;128125;1085;101793;-76
2023/07/12 10:27:20;;;;;;;3.37;2.60;;;;;;;26.70;42.58;100538.47;128022;1085;101795;-82
2023/07/12 10:29:54;;;;;;;5.83;2.63;;;;;;;26.69;42.23;100539.39;127004;1086;102006;-78
2023/07/12 10:32:27;;;;;;;4.40;2.70;;;;;;;26.72;42.40;100528.53;128069;1086;101779;-84
2023/07/12 10:35:14;;;;;;;5.20;2.80;;;;;;;26.84;42.14;100533.53;127844;1085;101990;-83
2023/07/12 10:37:47;;;;;;;3.17;2.57;;;;;;;26.79;42.35;100513.09;128049;1086;102133;-81
2023/07/12 10:40:30;;;;;;;4.00;2.70;;;;;;;26.84;41.79;100513.81;128401;1085;102670;-83
2023/07/12 10:43:04;;;;;;;4.83;2.80;;;;;;;26.87;42.20;100525.36;127964;1086;102609;-85
2023/07/12 10:45:38;;;;;;;5.33;2.80;;;;;;;26.84;41.73;100538.91;127871;1086;104309;-81
2023/07/12 10:48:18;;;;;;;6.13;2.87;;;;;;;26.84;41.88;100525.45;128429;1086;103998;-80
2023/07/12 10:50:54;;;;;;;4.50;2.73;;;;;;;26.89;42.07;100536.08;127563;1086;104232;-81
2023/07/12 10:53:27;;;;;;;4.67;2.70;;;;;;;27.00;41.23;100533.92;127505;1086;102178;-79
2023/07/12 10:56:16;;;;;;;4.10;2.83;;;;;;;26.95;40.59;100527.81;127900;1086;104155;-81
2023/07/12 10:58:51;;;;;;;5.87;2.80;;;;;;;26.95;40.25;100510.78;128887;1085;101577;-85
2023/07/12 11:02:03;;;;;;;4.47;2.80;;;;;;;26.98;41.28;100507.99;128320;1085;101995;-84
2023/07/12 11:04:53;;;;;;;4.40;2.50;;;;;;;26.99;40.86;100509.73;127162;1085;102813;-82
2023/07/12 11:07:37;;;;;;;4.47;3.20;;;;;;;27.00;40.69;100516.89;127556;1086;104222;-79
2023/07/12 11:10:26;;;;;;;4.53;2.60;;;;;;;27.06;40.31;100522.08;127944;1085;101877;-81
2023/07/12 11:13:10;;;;;;;4.47;2.70;;;;;;;27.14;40.48;100516.45;127821;1085;103339;-81
2023/07/12 11:15:59;;;;;;;5.60;2.83;;;;;;;27.12;40.28;100519.19;126632;1086;104152;-79
2023/07/12 11:18:38;;;;;;;4.78;2.52;;;;;;;27.07;40.01;100526.55;127561;1086;101874;-77
2023/07/12 11:21:25;;;;;;;4.70;2.70;;;;;;;27.08;39.81;100528.29;127737;1085;102021;-80
2023/07/12 11:23:55;;;;;;;4.33;2.60;;;;;;;27.14;39.82;100527.22;127681;1085;104197;-80
2023/07/12 11:26:53;;;;;;;5.30;2.70;;;;;;;27.22;40.58;100520.66;126615;1086;102245;-76
2023/07/12 11:29:31;;;;;;;5.17;2.80;;;;;;;27.28;39.13;100521.38;126331;1086;104228;-76
2023/07/12 11:32:17;;;;;;;4.35;2.67;;;;;;;27.25;38.38;100531.34;126328;1086;104309;-75
2023/07/12 11:34:48;;;;;;;6.03;2.97;;;;;;;27.19;38.51;100509.98;127287;1086;104242;-75